• Join FlightAware (Why Join?)
  • Login
  • US Flag 
09:08PM EDT


 

Airport Tracker/Info


-or-


 

Live Flight TrackerFlight Track Log ✈ JBU917 ✈ 15-Apr-2013 ✈ KJFK - KORD

Flight Track Log - Related Links

Times and Time Zones

All times are in EDT time to prevent confusion due to time zone crossing. See the JBU917 flight status page for this flight to view local times or setup timezone preferences in your user account.

Time Position Orientation Groundspeed Altitude Reporting Facility
EDT Latitude Longitude Course Direction KTS MPH feet Rate Location/Type
04:19PM 40.6333 -73.7333 304° West 180 207 2,000  Level New York TRACON
04:20PM 40.6167 -73.6500 105° East 242 278 3,800 2,340 Climbing New York TRACON
04:21PM 40.7852 -74.0537 304° West  Level FlightAware Approximate
04:21PM 40.6500 -73.5667 62° Northeast 293 337 6,700  Level New York TRACON
04:22PM 40.8360 -74.1551 304° West  Level FlightAware Approximate
04:22PM 40.7167 -73.5167 30° Northeast 285 328 9,900  Level New York TRACON
04:23PM 40.8880 -74.2556 306° West  Level FlightAware Approximate
04:23PM 40.8000 -73.4667 24° Northeast 337 388 11,500  Level New York TRACON
04:24PM 40.9418 -74.3544 306° West  Level FlightAware Approximate
04:24PM 40.8833 -73.5167 336° Northwest 352 405 14,000  Level New York TRACON
04:25PM 40.9992 -74.4484 304° West  Level FlightAware Approximate
04:25PM 40.9667 -73.5833 329° Northwest 358 412 16,600  Level New York TRACON
04:27PM 41.0578 -73.8144 298° West 358 412 17,000 60 Climbing New York Center
04:28PM 41.0692 -73.9417 277° West 358 412 16,900 60 Descending New York Center
04:29PM 41.0822 -74.0717 278° West 353 406 17,200 1,260 Climbing New York Center
04:30PM 41.0950 -74.2017 277° West 359 413 19,400 2,100 Climbing New York Center
04:31PM 41.1228 -74.3242 287° West 349 402 21,400 1,800 Climbing New York Center
04:32PM 41.1606 -74.4503 292° West 356 410 23,000 1,620 Climbing New York Center
04:33PM 41.2019 -74.5847 292° West 379 436 24,700 1,680 Climbing New York Center
04:34PM 41.2419 -74.7056 294° West 379 436 26,500 1,380 Climbing New York Center
04:35PM 41.2831 -74.8378 293° West 379 436 27,600 960 Climbing New York Center
04:36PM 41.3203 -74.9672 291° West 386 444 28,500 1,260 Climbing New York Center
04:37PM 41.3614 -75.1022 292° West 400 460 30,100 1,560 Climbing New York Center
04:38PM 41.4022 -75.2350 292° West 395 455 31,700 1,440 Climbing New York Center
04:39PM 41.4389 -75.3647 291° West 389 448 33,000 1,140 Climbing New York Center
04:40PM 41.4775 -75.4947 292° West 384 442 34,000 900 Climbing New York Center
04:41PM 41.5161 -75.6222 292° West 379 436 34,900 840 Climbing New York Center
04:42PM 41.5522 -75.7522 290° West 379 436 35,700 540 Climbing New York Center
04:43PM 41.5906 -75.8800 292° West 379 436 36,000 120 Climbing New York Center
04:44PM 41.6264 -76.0158 289° West 379 436 36,000  Level New York Center
04:45PM 41.6661 -76.1522 291° West 385 443 36,000  Level New York Center
04:46PM 41.7092 -76.3003 291° West 385 443 36,000  Level New York Center
04:47PM 41.7467 -76.4367 290° West 391 450 36,000  Level New York Center
04:48PM 41.7781 -76.5592 289° West 391 450 36,000  Level New York Center
04:50PM 41.8456 -76.7975 291° West 390 449 36,000  Level Cleveland Center
04:51PM 41.8833 -76.9347 290° West 390 449 36,000  Level Cleveland Center
04:52PM 41.9161 -77.0531 290° West 390 449 36,000  Level Cleveland Center
04:53PM 41.9517 -77.1878 290° West 385 443 36,000  Level Cleveland Center
04:54PM 41.9889 -77.3256 290° West 385 443 36,000  Level Cleveland Center
04:55PM 42.0261 -77.4608 290° West 385 443 36,000  Level Cleveland Center
04:56PM 42.0608 -77.5933 289° West 385 443 36,000  Level Cleveland Center
04:57PM 42.0956 -77.7261 289° West 385 443 36,000  Level Cleveland Center
04:58PM 42.1322 -77.8644 290° West 385 443 36,000  Level Cleveland Center
04:59PM 42.1664 -77.9975 289° West 385 443 36,000  Level Cleveland Center
05:00PM 42.2028 -78.1306 290° West 385 443 36,000  Level Cleveland Center
05:01PM 42.2369 -78.2667 289° West 380 437 36,000  Level Cleveland Center
05:02PM 42.2728 -78.4056 289° West 380 437 36,000  Level Cleveland Center
05:03PM 42.3067 -78.5336 290° West 380 437 36,000  Level Cleveland Center
05:04PM 42.3422 -78.6731 289° West 380 437 36,000  Level Cleveland Center
05:05PM 42.3778 -78.8097 289° West 385 443 36,000  Level Cleveland Center
05:06PM 42.4111 -78.9464 288° West 385 443 36,000  Level Cleveland Center
05:07PM 42.4464 -79.0947 288° West 385 443 36,000  Level Cleveland Center
05:08PM 42.4772 -79.2178 289° West 379 436 36,000  Level Cleveland Center
05:09PM 42.4975 -79.3611 281° West 379 436 36,000  Level Cleveland Center
05:10PM 42.5031 -79.4989 273° West 379 436 36,000  Level Cleveland Center
05:11PM 42.5106 -79.6425 274° West 374 430 36,000  Level Cleveland Center
05:12PM 42.5178 -79.7831 274° West 379 436 36,000  Level Cleveland Center
05:13PM 42.5250 -79.9239 274° West 379 436 36,000  Level Cleveland Center
05:14PM 42.5278 -80.0817 271° West 386 444 36,000  Level Cleveland Center
05:15PM 42.5347 -80.2253 274° West 386 444 36,000  Level Cleveland Center
05:16PM 42.5414 -80.3661 274° West 379 436 36,000  Level Cleveland Center
05:17PM 42.5456 -80.5072 272° West 379 436 36,000  Level Cleveland Center
05:18PM 42.5519 -80.6422 274° West 379 436 36,000  Level Cleveland Center
05:19PM 42.5558 -80.7692 272° West 379 436 36,000  Level Cleveland Center
05:20PM 42.5619 -80.9075 273° West 372 428 36,000  Level Cleveland Center
05:21PM 42.5656 -81.0483 272° West 372 428 36,000  Level Cleveland Center
05:22PM 42.5711 -81.1836 273° West 367 422 36,000  Level Cleveland Center
05:23PM 42.5744 -81.3219 272° West 367 422 36,000  Level Cleveland Center
05:24PM 42.5839 -81.4603 275° West 367 422 36,000  Level Cleveland Center
05:25PM 42.6078 -81.5958 284° West 367 422 36,000  Level Cleveland Center
05:26PM 42.6317 -81.7233 284° West 360 414 36,000  Level Cleveland Center
05:27PM 42.6553 -81.8706 282° West 354 407 36,000  Level Cleveland Center
05:28PM 42.6786 -82.0008 284° West 354 407 36,000  Level Cleveland Center
05:29PM 42.7019 -82.1342 283° West 354 407 36,000  Level Cleveland Center
05:30PM 42.7231 -82.2647 282° West 354 407 36,000  Level Cleveland Center
05:31PM 42.7461 -82.3925 284° West 354 407 36,000  Level Cleveland Center
05:32PM 42.7669 -82.5233 282° West 354 407 36,000  Level Cleveland Center
05:33PM 42.7897 -82.6542 283° West 354 407 36,000  Level Cleveland Center
05:34PM 42.8122 -82.7822 284° West 354 407 36,000  Level Cleveland Center
05:35PM 42.8328 -82.9103 282° West 354 407 36,000  Level Cleveland Center
05:36PM 42.8531 -83.0386 282° West 354 407 36,000 -240 Level Cleveland Center
05:37PM 42.8731 -83.1669 282° West 354 407 35,600 -840 Descending Cleveland Center
05:38PM 42.8931 -83.2953 282° West 354 407 34,400 -1,200 Descending Cleveland Center
05:39PM 42.9150 -83.4267 283° West 354 407 33,200 -1,200 Descending Cleveland Center
05:40PM 42.9344 -83.5608 281° West 354 407 32,000 -600 Descending Cleveland Center
05:41PM 42.9581 -83.6981 283° West 359 413 32,000  Level Cleveland Center
05:42PM 42.9583 -83.8344 270° West 359 413 32,000  Level Cleveland Center
05:43PM 42.9461 -83.9672 263° West 359 413 32,000  Level Cleveland Center
05:44PM 42.9319 -84.0911 261° West 367 422 32,000  Level Cleveland Center
05:45PM 42.9175 -84.2264 262° West 367 422 32,000  Level Cleveland Center
05:46PM 42.9067 -84.3706 264° West 367 422 32,000  Level Cleveland Center
05:47PM 42.8969 -84.4542 261° West 363 418 32,000  Level Chicago Center
05:48PM 42.8836 -84.5875 262° West 358 412 32,000  Level Chicago Center
05:49PM 42.8697 -84.7233 262° West 363 418 32,000  Level Chicago Center
05:50PM 42.8556 -84.8581 262° West 360 414 32,000  Level Chicago Center
05:51PM 42.8419 -84.9922 262° West 358 412 32,000 -540 Level Chicago Center
05:52PM 42.8244 -85.1528 262° West 358 412 31,000 -1,080 Descending Chicago Center
05:53PM 42.8094 -85.2850 261° West 355 409 29,800 -1,260 Descending Chicago Center
05:54PM 42.7958 -85.4147 262° West 348 400 28,500 -1,320 Descending Chicago Center
05:55PM 42.7794 -85.5408 260° West 340 391 27,100 -1,380 Descending Chicago Center
05:56PM 42.7564 -85.6639 256° West 336 387 25,700 -1,380 Descending Chicago Center
05:57PM 42.7344 -85.7867 256° West 333 383 24,300 -1,380 Descending Chicago Center
05:58PM 42.7133 -85.9069 257° West 327 376 22,900 -1,500 Descending Chicago Center
05:59PM 42.6875 -86.0478 256° West 320 368 21,200 -1,440 Descending Chicago Center
06:00PM 42.6667 -86.1600 256° West 309 356 20,000 -660 Descending Chicago Center
06:01PM 42.6464 -86.2711 256° West 304 350 19,900 -600 Descending Chicago Center
06:02PM 42.6250 -86.3822 255° West 304 350 18,800 -1,140 Descending Chicago Center
06:03PM 42.6039 -86.4922 255° West 302 348 17,600 -1,500 Descending Chicago Center
06:04PM 42.5847 -86.5997 256° West 296 341 15,700 -2,280 Descending Chicago Center
06:05PM 42.5633 -86.7053 255° West 291 335 13,000 -2,400 Descending Chicago Center
06:06PM 42.5336 -86.8328 252° West 296 341 10,800 -1,320 Descending Chicago Center
06:07PM 42.5067 -86.9289 249° West 281 323 10,300 -840 Descending Chicago Center
06:08PM 42.4819 -87.0153 249° West 254 292 9,100 -660 Descending Chicago Center
06:09PM 42.4572 -87.1025 249° West 249 287 9,000 -60 Descending Chicago Center
06:10PM 42.4294 -87.1892 247° West 252 290 9,000  Level Chicago Center
06:11PM 42.3575 -87.1942 183° South 249 287 9,000  Level Chicago Center
06:12PM 42.2750 -87.1964 181° South 247 284 9,000  Level Chicago Center
06:13PM 42.2047 -87.1997 182° South 251 289 9,000  Level Chicago Center
06:15PM 42.1364 -87.2042 183° South 249 287 9,000  Level Chicago Center
06:16PM 42.0681 -87.1986 177° South 247 284 9,000 -540 Level Chicago Center
06:17PM 42.0103 -87.2236 198° South 256 295 8,000 -540 Descending Chicago Center
06:18PM 41.9797 -87.3142 246° West 224 258 8,000 -180 Level Chicago Center
06:19PM 41.9828 -87.3969 273° West 219 252 7,700 -480 Descending Chicago Center
06:19PM 41.9833 -87.4500 271° West 199 229 7,200 -960 Descending Chicago TRACON
06:20PM 41.9833 -87.5167 270° West 181 208 6,200 -1,020 Descending Chicago TRACON
06:21PM 41.9833 -87.5833 270° West 174 200 5,200 -1,020 Descending Chicago TRACON
06:22PM 41.9833 -87.6500 270° West 174 200 4,200 -960 Descending Chicago TRACON
06:23PM 41.9833 -87.7000 270° West 173 199 3,300 -900 Descending Chicago TRACON
06:24PM 41.9833 -87.7667 270° West 167 192 2,400 -900 Descending Chicago TRACON
06:25PM 41.9833 -87.8167 270° West 127 146 1,600 -780 Descending Chicago TRACON
06:26PM 41.9833 -87.8667 270° West 136 157 900 -720 Descending Chicago TRACON
06:28PM 41.9667 -87.9000 270° West  Level FlightAware Approximate